Time;durP1;ratioP1;P1;durP2;ratioP2;P2;SDS_P1;SDS_P2;PMS_P1;PMS_P2;Temp;Humidity;BMP_temperature;BMP_pressure;BME280_temperature;BME280_humidity;BME280_pressure;Samples;Min_cycle;Max_cycle;Signal;HPM_P1;HPM_P2
2022/10/11 00:01:41;;;;;;;0.60;0.30;;;14.30;95.50;;;;;;5037574;28;20059;-80
2022/10/11 00:07:29;;;;;;;1.52;1.33;;;14.20;95.70;;;;;;5037586;28;20025;-80
2022/10/11 00:10:06;;;;;;;2.53;0.57;;;14.20;95.40;;;;;;5052232;28;20025;-81
2022/10/11 00:12:41;;;;;;;0.40;0.32;;;14.20;95.70;;;;;;5035681;28;20025;-81
2022/10/11 00:18:38;;;;;;;1.02;0.63;;;14.10;96.00;;;;;;5029845;28;20104;-80
2022/10/11 00:21:16;;;;;;;1.15;0.35;;;14.10;96.00;;;;;;5045103;28;20038;-80
2022/10/11 00:23:51;;;;;;;0.47;0.43;;;14.00;96.20;;;;;;5052386;28;20018;-80
2022/10/11 00:29:49;;;;;;;0.50;0.47;;;13.90;96.30;;;;;;5036963;28;20024;-80
2022/10/11 00:32:24;;;;;;;1.35;1.02;;;13.90;96.60;;;;;;5036717;28;20053;-79
2022/10/11 00:38:21;;;;;;;0.38;0.38;;;13.80;97.20;;;;;;5037013;28;20099;-81
2022/10/11 00:40:56;;;;;;;0.73;0.50;;;13.70;97.30;;;;;;5035283;28;20047;-80
2022/10/11 00:43:32;;;;;;;0.73;0.63;;;13.70;97.60;;;;;;5019024;28;20021;-80
2022/10/11 00:50:20;;;;;;;0.35;0.35;;;13.60;97.70;;;;;;5036114;28;20072;-80
2022/10/11 00:53:46;;;;;;;0.73;0.47;;;13.60;97.80;;;;;;5036504;28;20048;-79
2022/10/11 00:56:25;;;;;;;0.73;0.73;;;13.70;97.60;;;;;;5035158;28;20033;-79
2022/10/11 00:59:04;;;;;;;0.77;0.70;;;13.90;97.20;;;;;;5018751;28;20033;-79
2022/10/11 01:01:39;;;;;;;1.02;0.55;;;13.90;97.10;;;;;;5020417;28;20080;-80
2022/10/11 01:04:15;;;;;;;0.40;0.32;;;13.90;96.80;;;;;;5039548;28;20054;-80
2022/10/11 01:06:42;;;;;;;0.70;0.50;;;14.00;96.80;;;;;;5022818;28;20107;-80
2022/10/11 01:09:18;;;;;;;0.98;0.82;;;13.90;97.10;;;;;;5056053;28;20032;-80
2022/10/11 01:11:57;;;;;;;0.43;0.43;;;13.90;96.90;;;;;;5022702;28;20025;-79
2022/10/11 01:17:58;;;;;;;2.83;0.88;;;13.90;96.60;;;;;;5040641;28;20314;-79
2022/10/11 01:21:20;;;;;;;0.57;0.57;;;13.90;97.60;;;;;;5055799;28;20080;-79
2022/10/11 01:24:05;;;;;;;0.28;0.22;;;13.70;97.90;;;;;;5039055;28;20044;-79
2022/10/11 01:26:40;;;;;;;0.40;0.40;;;13.50;97.90;;;;;;5055642;28;20337;-82
2022/10/11 01:29:59;;;;;;;0.43;0.23;;;13.40;98.00;;;;;;5040198;28;20402;-80
2022/10/11 01:33:23;;;;;;;0.20;0.20;;;13.30;98.00;;;;;;5039943;28;20398;-79
2022/10/11 01:39:37;;;;;;;0.35;0.35;;;13.20;98.00;;;;;;5040195;28;20020;-81
2022/10/11 01:42:14;;;;;;;1.50;0.57;;;13.00;98.00;;;;;;5022065;28;20029;-79
2022/10/11 01:45:00;;;;;;;0.98;0.60;;;12.90;98.00;;;;;;5040078;28;20017;-80
2022/10/11 01:47:26;;;;;;;0.65;0.55;;;12.90;98.00;;;;;;5022191;28;20071;-80
2022/10/11 01:50:45;;;;;;;2.03;0.70;;;12.90;98.00;;;;;;5039233;28;20049;-80
2022/10/11 01:53:47;;;;;;;0.75;0.60;;;12.80;98.00;;;;;;5001530;28;20116;-81
2022/10/11 02:00:11;;;;;;;1.27;1.00;;;13.10;98.00;;;;;;5018224;28;20481;-79
2022/10/11 02:03:15;;;;;;;0.40;0.40;;;13.20;98.00;;;;;;5017892;28;20026;-79
2022/10/11 02:09:43;;;;;;;0.93;0.82;;;13.40;98.00;;;;;;5039387;28;20067;-79
2022/10/11 02:12:35;;;;;;;0.32;0.25;;;13.30;98.00;;;;;;5054786;28;20057;-80
2022/10/11 02:18:40;;;;;;;0.47;0.47;;;13.30;98.00;;;;;;5039636;28;20095;-79
2022/10/11 02:21:19;;;;;;;0.30;0.20;;;13.30;98.00;;;;;;5021549;28;20313;-79
2022/10/11 02:24:15;;;;;;;0.13;0.13;;;13.20;98.00;;;;;;5037882;28;20026;-79
2022/10/11 02:26:44;;;;;;;0.20;0.20;;;13.40;98.00;;;;;;5021494;28;20306;-80
2022/10/11 02:29:25;;;;;;;0.22;0.22;;;13.70;96.70;;;;;;5039094;28;20297;-80
2022/10/11 02:32:01;;;;;;;0.22;0.22;;;13.90;96.80;;;;;;5021079;28;20028;-79
2022/10/11 02:34:55;;;;;;;1.08;0.95;;;13.90;96.90;;;;;;5021303;28;20416;-79
2022/10/11 02:37:39;;;;;;;0.45;0.45;;;13.80;96.70;;;;;;5054281;28;20398;-80
2022/10/11 02:40:37;;;;;;;0.40;0.40;;;13.80;96.90;;;;;;5038618;28;20025;-82
2022/10/11 02:43:59;;;;;;;0.50;0.45;;;13.90;96.50;;;;;;5037579;28;20056;-80
2022/10/11 02:50:37;;;;;;;3.72;1.95;;;14.00;96.10;;;;;;5038272;28;20080;-82
2022/10/11 02:54:03;;;;;;;0.22;0.22;;;14.00;96.20;;;;;;5037515;28;20033;-82
2022/10/11 02:57:29;;;;;;;1.42;1.02;;;13.90;97.20;;;;;;5037685;28;20044;-79
2022/10/11 03:00:54;;;;;;;1.23;0.82;;;13.70;97.90;;;;;;5038300;28;20092;-81
2022/10/11 03:04:21;;;;;;;0.30;0.20;;;13.60;97.80;;;;;;5037191;28;20095;-81
2022/10/11 03:06:47;;;;;;;0.32;0.32;;;13.60;97.80;;;;;;5036946;28;20033;-82
2022/10/11 03:09:22;;;;;;;3.45;0.82;;;13.50;97.40;;;;;;5037139;28;20021;-81
2022/10/11 03:11:57;;;;;;;0.30;0.30;;;13.40;97.70;;;;;;5037296;28;20307;-81
2022/10/11 03:17:44;;;;;;;0.70;0.50;;;13.30;98.00;;;;;;5037980;28;20342;-81
2022/10/11 03:20:19;;;;;;;0.15;0.15;;;13.20;98.00;;;;;;5036830;28;20029;-82
2022/10/11 03:22:55;;;;;;;0.10;0.10;;;13.10;98.00;;;;;;5053335;28;20028;-81
2022/10/11 03:25:29;;;;;;;1.23;1.17;;;13.20;98.00;;;;;;5037302;28;20104;-81
2022/10/11 03:27:55;;;;;;;0.40;0.40;;;13.30;98.00;;;;;;5053353;28;20021;-82
2022/10/11 03:30:30;;;;;;;0.95;0.57;;;13.40;98.00;;;;;;5036678;28;20082;-82
2022/10/11 03:33:05;;;;;;;0.40;0.40;;;13.50;97.90;;;;;;5037715;28;20018;-81
2022/10/11 03:38:53;;;;;;;0.20;0.20;;;13.60;97.70;;;;;;5037693;28;20067;-81
2022/10/11 03:41:29;;;;;;;0.82;0.63;;;13.60;97.50;;;;;;5053072;28;20112;-82
2022/10/11 03:44:18;;;;;;;0.40;0.30;;;13.60;97.20;;;;;;5037548;28;20025;-81
2022/10/11 03:46:43;;;;;;;0.45;0.35;;;13.60;97.20;;;;;;5036414;28;20173;-81
2022/10/11 03:53:02;;;;;;;0.43;0.25;;;13.60;96.90;;;;;;5036375;28;20044;-82
2022/10/11 03:55:39;;;;;;;0.98;0.65;;;13.70;97.20;;;;;;5037121;28;20022;-82
2022/10/11 03:58:04;;;;;;;0.17;0.15;;;13.60;97.10;;;;;;5037310;28;20069;-81
2022/10/11 04:00:39;;;;;;;0.10;0.10;;;13.60;97.30;;;;;;5019331;28;20402;-79
2022/10/11 04:03:14;;;;;;;0.38;0.30;;;13.50;97.50;;;;;;5036037;28;20026;-82
2022/10/11 04:05:49;;;;;;;1.23;0.90;;;13.40;97.60;;;;;;5037136;28;20088;-81
2022/10/11 04:08:24;;;;;;;0.50;0.50;;;13.30;98.00;;;;;;5052955;28;20271;-81
2022/10/11 04:10:59;;;;;;;0.20;0.20;;;13.20;98.00;;;;;;5052538;28;20027;-82
2022/10/11 04:13:34;;;;;;;0.52;0.47;;;13.20;98.00;;;;;;5052685;28;20436;-81
2022/10/11 04:16:00;;;;;;;0.68;0.68;;;13.20;98.00;;;;;;5019369;28;20094;-82
2022/10/11 04:18:41;;;;;;;0.43;0.30;;;13.10;98.00;;;;;;5035929;28;20390;-82
2022/10/11 04:21:16;;;;;;;0.45;0.35;;;13.10;98.00;;;;;;5052407;28;20035;-81
2022/10/11 04:23:51;;;;;;;4.67;0.50;;;13.00;98.00;;;;;;5036889;28;20057;-82
2022/10/11 04:26:17;;;;;;;0.47;0.47;;;13.00;98.00;;;;;;5052080;28;20306;-82
2022/10/11 04:29:02;;;;;;;0.95;0.73;;;13.00;98.00;;;;;;5052295;28;20418;-82
2022/10/11 04:31:36;;;;;;;2.53;1.23;;;13.00;98.00;;;;;;5036704;28;20405;-81
2022/10/11 04:34:11;;;;;;;0.52;0.38;;;13.00;98.00;;;;;;5019275;28;20406;-81
2022/10/11 04:36:37;;;;;;;0.10;0.03;;;13.00;98.00;;;;;;5034654;28;20104;-81
2022/10/11 04:39:22;;;;;;;0.47;0.47;;;13.00;98.00;;;;;;5052229;28;20461;-82
2022/10/11 04:41:58;;;;;;;2.38;0.50;;;12.90;98.00;;;;;;5036397;28;20025;-81
2022/10/11 04:44:32;;;;;;;;;;;12.90;98.00;;;;;;5019397;28;20032;-82
2022/10/11 04:46:58;;;;;;;0.85;0.75;;;12.90;98.00;;;;;;5019007;28;19905;-82
2022/10/11 04:49:39;;;;;;;0.50;0.45;;;12.90;98.00;;;;;;5036594;28;20028;-81
2022/10/11 04:53:05;;;;;;;0.32;0.28;;;12.90;98.00;;;;;;5051499;28;20373;-81
2022/10/11 04:56:00;;;;;;;0.30;0.30;;;12.90;98.00;;;;;;5036359;28;20032;-81
2022/10/11 04:58:48;;;;;;;3.17;1.42;;;12.80;98.00;;;;;;5036493;28;20053;-82
2022/10/11 05:01:22;;;;;;;0.80;0.80;;;12.90;98.00;;;;;;5036802;28;20024;-81
2022/10/11 05:03:58;;;;;;;0.77;0.65;;;13.10;98.00;;;;;;5018979;28;20112;-82
2022/10/11 05:06:24;;;;;;;0.35;0.30;;;13.30;97.50;;;;;;5018741;28;20138;-81
2022/10/11 05:09:02;;;;;;;0.65;0.43;;;13.50;97.20;;;;;;5035287;28;20361;-81
2022/10/11 05:11:37;;;;;;;0.30;0.30;;;13.60;96.60;;;;;;5018856;28;20473;-82
2022/10/11 05:14:12;;;;;;;0.33;0.33;;;13.70;96.20;;;;;;5035086;28;20076;-81
2022/10/11 05:16:38;;;;;;;0.60;0.47;;;13.80;95.30;;;;;;5035164;28;20022;-81
2022/10/11 05:19:22;;;;;;;0.32;0.32;;;13.80;95.70;;;;;;5036425;28;20474;-81
2022/10/11 05:21:57;;;;;;;0.10;0.10;;;13.70;95.30;;;;;;5018836;28;20115;-81
2022/10/11 05:24:32;;;;;;;0.32;0.32;;;13.70;95.80;;;;;;5035105;28;20287;-81
2022/10/11 05:26:57;;;;;;;0.37;0.37;;;13.60;96.20;;;;;;5018865;28;20022;-82
2022/10/11 05:29:41;;;;;;;1.10;0.65;;;13.50;96.90;;;;;;5036128;28;20047;-82
2022/10/11 05:32:16;;;;;;;0.40;0.40;;;13.40;96.40;;;;;;5035046;28;20037;-81
2022/10/11 05:34:51;;;;;;;1.13;0.38;;;13.60;95.90;;;;;;5035087;28;20030;-81
2022/10/11 05:37:17;;;;;;;0.35;0.35;;;13.70;95.50;;;;;;5034969;28;20049;-81
2022/10/11 05:40:01;;;;;;;0.15;0.15;;;13.80;95.00;;;;;;5018553;28;20414;-81
2022/10/11 05:42:37;;;;;;;0.45;0.22;;;13.90;94.60;;;;;;5018447;28;20032;-81
2022/10/11 05:45:11;;;;;;;0.63;0.63;;;14.10;94.00;;;;;;5035865;28;20410;-81
2022/10/11 05:47:37;;;;;;;0.63;0.40;;;14.10;93.60;;;;;;5036660;28;20120;-81
2022/10/11 05:50:21;;;;;;;0.70;0.63;;;14.20;93.80;;;;;;5039840;28;20060;-82
2022/10/11 05:52:56;;;;;;;0.65;0.50;;;14.30;94.10;;;;;;5038288;28;20050;-80
2022/10/11 05:55:37;;;;;;;1.45;0.60;;;14.30;93.60;;;;;;5038479;28;20365;-78
2022/10/11 05:58:03;;;;;;;0.40;0.40;;;14.40;93.50;;;;;;5021979;28;20013;-79
2022/10/11 06:00:41;;;;;;;1.58;1.05;;;14.50;93.20;;;;;;5055149;28;20290;-79
2022/10/11 06:03:16;;;;;;;0.50;0.50;;;14.60;93.10;;;;;;5038418;28;20025;-81
2022/10/11 06:05:50;;;;;;;0.20;0.20;;;14.70;92.40;;;;;;5021865;28;20329;-82
2022/10/11 06:08:25;;;;;;;0.70;0.70;;;14.80;93.30;;;;;;5038411;28;20329;-80
2022/10/11 06:11:09;;;;;;;0.40;0.40;;;14.80;93.10;;;;;;5038231;28;20028;-82
2022/10/11 06:13:44;;;;;;;0.43;0.43;;;14.80;93.20;;;;;;5021713;28;20060;-82
2022/10/11 06:16:10;;;;;;;0.20;0.20;;;14.90;94.10;;;;;;5038144;28;20029;-81
2022/10/11 06:18:46;;;;;;;0.20;0.20;;;15.00;95.20;;;;;;5021712;28;20096;-82
2022/10/11 06:21:21;;;;;;;0.50;0.50;;;15.10;95.00;;;;;;5021632;28;20444;-80
2022/10/11 06:23:56;;;;;;;0.22;0.17;;;15.10;95.20;;;;;;5021576;28;20353;-80
2022/10/11 06:26:22;;;;;;;0.27;0.27;;;15.20;95.80;;;;;;5054620;28;20045;-79
2022/10/11 06:29:06;;;;;;;0.15;0.15;;;15.20;95.20;;;;;;5038108;28;20690;-79
2022/10/11 06:31:41;;;;;;;0.30;0.30;;;15.30;94.80;;;;;;5038896;28;20026;-79
2022/10/11 06:37:29;;;;;;;0.20;0.20;;;15.40;92.80;;;;;;5039046;28;20363;-79
2022/10/11 06:40:04;;;;;;;0.73;0.30;;;15.50;93.50;;;;;;5054355;28;20013;-80
2022/10/11 06:42:39;;;;;;;0.63;0.50;;;15.50;93.80;;;;;;5054273;28;20034;-79
2022/10/11 06:45:14;;;;;;;1.02;0.93;;;15.60;93.20;;;;;;5021141;28;20025;-79
2022/10/11 06:47:40;;;;;;;0.55;0.35;;;15.70;93.00;;;;;;5037675;28;20532;-81
2022/10/11 06:50:15;;;;;;;1.25;0.80;;;15.70;93.30;;;;;;5054355;28;20045;-79
2022/10/11 06:56:25;;;;;;;0.40;0.35;;;15.80;95.10;;;;;;5038530;28;20035;-81
2022/10/11 06:59:00;;;;;;;0.88;0.43;;;15.90;94.50;;;;;;5037470;28;20377;-81
2022/10/11 07:01:35;;;;;;;0.65;0.47;;;16.00;93.90;;;;;;5020771;28;20020;-81
2022/10/11 07:04:10;;;;;;;0.17;0.10;;;16.00;91.50;;;;;;5020858;28;20455;-81
2022/10/11 07:06:38;;;;;;;0.60;0.60;;;16.10;91.90;;;;;;5020663;28;20092;-81
2022/10/11 07:09:13;;;;;;;0.32;0.32;;;16.20;90.70;;;;;;5020637;28;20029;-81
2022/10/11 07:11:48;;;;;;;1.73;0.97;;;16.30;90.60;;;;;;5020608;28;20061;-81
2022/10/11 07:17:36;;;;;;;0.50;0.43;;;16.30;93.30;;;;;;5038007;28;20048;-81
2022/10/11 07:20:45;;;;;;;0.52;0.28;;;16.50;91.40;;;;;;5020546;28;20053;-81
2022/10/11 07:23:20;;;;;;;0.50;0.30;;;16.50;89.30;;;;;;5036659;28;20053;-81
2022/10/11 07:25:55;;;;;;;0.37;0.37;;;16.70;88.10;;;;;;5037949;28;20374;-81
2022/10/11 07:28:30;;;;;;;1.27;1.13;;;16.70;93.00;;;;;;5037808;28;20248;-81
2022/10/11 07:31:08;;;;;;;0.22;0.22;;;16.80;90.70;;;;;;5038125;28;20056;-81
2022/10/11 07:33:43;;;;;;;0.30;0.30;;;16.80;93.60;;;;;;5037718;28;20029;-81
2022/10/11 07:36:10;;;;;;;0.63;0.43;;;16.90;93.00;;;;;;5037837;28;20031;-80
2022/10/11 07:38:51;;;;;;;0.30;0.30;;;16.90;93.40;;;;;;5019822;28;20067;-80
2022/10/11 07:41:26;;;;;;;0.20;0.20;;;16.90;92.80;;;;;;5003706;28;20025;-81
2022/10/11 07:44:02;;;;;;;1.13;0.53;;;16.90;94.20;;;;;;5020204;28;20100;-81
2022/10/11 07:46:27;;;;;;;0.50;0.30;;;16.80;95.40;;;;;;5019760;28;20021;-81
2022/10/11 07:49:11;;;;;;;0.63;0.50;;;16.80;93.40;;;;;;5020114;28;20287;-81
2022/10/11 07:51:46;;;;;;;1.45;1.35;;;16.90;96.00;;;;;;5020060;28;20065;-80
2022/10/11 07:55:11;;;;;;;0.30;0.30;;;16.90;96.50;;;;;;5036788;28;20087;-80
2022/10/11 07:58:39;;;;;;;0.50;0.40;;;17.00;93.30;;;;;;5037473;28;20264;-81
2022/10/11 08:02:05;;;;;;;0.43;0.43;;;17.10;94.40;;;;;;5019765;28;20029;-81
2022/10/11 08:05:31;;;;;;;1.48;0.75;;;17.30;93.00;;;;;;5048901;28;20034;-81
2022/10/11 08:07:57;;;;;;;0.80;0.63;;;17.60;92.80;;;;;;5037151;28;20100;-81
2022/10/11 08:10:41;;;;;;;0.45;0.43;;;17.80;90.20;;;;;;5052617;28;20041;-81
2022/10/11 08:13:16;;;;;;;0.88;0.77;;;18.10;91.80;;;;;;5048897;28;20020;-78
2022/10/11 08:15:51;;;;;;;4.07;1.70;;;18.80;91.10;;;;;;5056926;28;20420;-82
2022/10/11 08:18:26;;;;;;;0.93;0.82;;;19.60;86.70;;;;;;5055734;28;20483;-78
2022/10/11 08:21:15;;;;;;;1.20;0.68;;;20.10;87.00;;;;;;5072499;28;20021;-79
2022/10/11 08:23:50;;;;;;;3.03;1.73;;;20.50;86.30;;;;;;5055622;28;20033;-79
2022/10/11 08:26:15;;;;;;;0.98;0.70;;;21.20;83.20;;;;;;5056669;28;20049;-78
2022/10/11 08:28:50;;;;;;;1.02;0.80;;;21.50;80.50;;;;;;5055736;28;20082;-79
2022/10/11 08:31:25;;;;;;;0.73;0.65;;;21.60;79.50;;;;;;5056739;28;20014;-78
2022/10/11 08:34:00;;;;;;;0.55;0.30;;;21.40;79.10;;;;;;5038981;28;20028;-79
2022/10/11 08:36:26;;;;;;;1.10;0.77;;;21.30;79.70;;;;;;5038869;28;20021;-78
2022/10/11 08:39:08;;;;;;;1.20;0.85;;;21.50;81.00;;;;;;5072302;28;20157;-78
2022/10/11 08:41:54;;;;;;;1.25;0.93;;;22.00;80.30;;;;;;5056480;28;20070;-78
2022/10/11 08:47:45;;;;;;;0.65;0.40;;;23.00;75.20;;;;;;5056815;28;20032;-78
2022/10/11 08:50:22;;;;;;;1.10;0.85;;;23.50;74.90;;;;;;5056688;28;20380;-77
2022/10/11 08:53:05;;;;;;;0.80;0.65;;;23.80;74.30;;;;;;5072120;28;20025;-80
2022/10/11 08:55:50;;;;;;;2.28;1.25;;;23.80;73.10;;;;;;5038534;28;20484;-81
2022/10/11 08:58:38;;;;;;;1.17;0.95;;;24.10;74.00;;;;;;5038781;28;20028;-80
2022/10/11 09:01:29;;;;;;;1.60;1.23;;;24.50;73.30;;;;;;5056341;28;20409;-80
2022/10/11 09:04:05;;;;;;;1.20;0.73;;;24.60;72.70;;;;;;5056256;28;20021;-80
2022/10/11 09:06:53;;;;;;;0.47;0.40;;;24.80;72.70;;;;;;5038620;28;20287;-79
2022/10/11 09:09:47;;;;;;;1.92;0.55;;;24.80;71.00;;;;;;5056280;28;20350;-80
2022/10/11 09:13:10;;;;;;;0.70;0.52;;;25.10;71.50;;;;;;5056229;28;20025;-80
2022/10/11 09:16:32;;;;;;;1.38;1.02;;;25.40;71.00;;;;;;5046906;28;20037;-80
2022/10/11 09:19:40;;;;;;;2.00;1.20;;;25.40;69.80;;;;;;5014675;28;20347;-80
2022/10/11 09:23:06;;;;;;;0.73;0.47;;;25.50;70.40;;;;;;4998975;28;20469;-80
2022/10/11 09:29:56;;;;;;;1.08;0.75;;;26.10;68.70;;;;;;4960248;28;20110;-80
2022/10/11 09:33:00;;;;;;;1.88;0.90;;;26.10;68.90;;;;;;4902956;29;20318;-80
2022/10/11 09:35:39;;;;;;;0.50;0.30;;;26.30;67.20;;;;;;4891626;29;20028;-80
2022/10/11 09:38:08;;;;;;;0.40;0.30;;;26.20;67.10;;;;;;4887136;29;20032;-80
2022/10/11 09:41:13;;;;;;;0.63;0.52;;;26.30;68.40;;;;;;4902823;29;20044;-80
2022/10/11 09:43:50;;;;;;;0.88;0.60;;;26.40;67.70;;;;;;4902484;29;20048;-80
2022/10/11 09:50:18;;;;;;;0.90;0.65;;;26.10;66.60;;;;;;4828484;29;20458;-79
2022/10/11 09:53:07;;;;;;;0.47;0.30;;;26.00;67.30;;;;;;4842101;29;20040;-79
2022/10/11 09:56:10;;;;;;;0.70;0.57;;;25.80;67.60;;;;;;4973647;28;20122;-80
2022/10/11 09:58:45;;;;;;;2.10;1.52;;;25.70;67.00;;;;;;4978986;28;20061;-78
2022/10/11 10:01:25;;;;;;;1.25;0.70;;;25.90;67.10;;;;;;4978844;28;20037;-79
2022/10/11 10:04:49;;;;;;;0.57;0.40;;;25.90;66.90;;;;;;4978890;28;20073;-79
2022/10/11 10:07:15;;;;;;;1.15;0.80;;;25.50;67.30;;;;;;5021624;28;20109;-79
2022/10/11 10:09:57;;;;;;;1.00;0.45;;;24.40;68.00;;;;;;5021746;28;20392;-78
2022/10/11 10:12:38;;;;;;;0.77;0.30;;;23.90;71.20;;;;;;5039401;28;20084;-78
2022/10/11 10:18:58;;;;;;;2.90;1.23;;;23.60;71.70;;;;;;5032351;28;20302;-79
2022/10/11 10:21:43;;;;;;;0.45;0.35;;;23.90;71.90;;;;;;5017136;28;20033;-78
2022/10/11 10:24:49;;;;;;;0.57;0.50;;;24.50;72.20;;;;;;5039076;28;20029;-77
2022/10/11 10:27:17;;;;;;;1.30;0.73;;;24.90;68.20;;;;;;5035977;28;20424;-78
2022/10/11 10:30:21;;;;;;;0.70;0.30;;;25.10;70.20;;;;;;5054507;28;20025;-79
2022/10/11 10:33:10;;;;;;;0.43;0.35;;;25.50;65.80;;;;;;5035241;28;20037;-80
2022/10/11 10:36:01;;;;;;;1.30;1.08;;;25.70;67.70;;;;;;5020834;28;20116;-78
2022/10/11 10:39:20;;;;;;;1.02;0.57;;;26.20;69.60;;;;;;5021265;28;20029;-79
2022/10/11 10:41:55;;;;;;;0.43;0.40;;;26.30;65.70;;;;;;5035527;28;20108;-79
2022/10/11 10:47:52;;;;;;;0.43;0.30;;;26.10;67.10;;;;;;5039036;28;20356;-78
2022/10/11 10:50:57;;;;;;;3.90;1.38;;;26.00;66.60;;;;;;5054089;28;20116;-79
2022/10/11 10:57:43;;;;;;;1.73;0.77;;;25.90;68.00;;;;;;5038998;28;20332;-79
2022/10/11 11:00:22;;;;;;;0.28;0.20;;;25.70;68.50;;;;;;5037267;28;20032;-79
2022/10/11 11:03:26;;;;;;;0.63;0.47;;;25.90;67.30;;;;;;5020751;28;20064;-79
2022/10/11 11:06:32;;;;;;;0.70;0.40;;;25.80;68.50;;;;;;5016399;28;20059;-78
2022/10/11 11:09:32;;;;;;;0.20;0.15;;;25.90;65.40;;;;;;5053647;28;20022;-79
2022/10/11 11:12:55;;;;;;;0.70;0.50;;;25.80;68.90;;;;;;5053919;28;20306;-78
2022/10/11 11:15:54;;;;;;;0.60;0.43;;;25.90;67.10;;;;;;5032246;28;20063;-78
2022/10/11 11:18:54;;;;;;;1.27;0.60;;;26.00;66.20;;;;;;5036887;28;20112;-79
2022/10/11 11:21:38;;;;;;;1.55;0.68;;;26.10;68.60;;;;;;5037807;28;20030;-78
2022/10/11 11:24:52;;;;;;;0.35;0.25;;;26.10;67.60;;;;;;5036975;28;20079;-78
2022/10/11 11:27:54;;;;;;;0.60;0.40;;;26.30;67.30;;;;;;5016387;28;20041;-78
2022/10/11 11:31:18;;;;;;;0.52;0.30;;;26.00;67.00;;;;;;5016243;28;20040;-78
2022/10/11 11:34:02;;;;;;;1.77;0.77;;;25.70;66.00;;;;;;4977207;28;20041;-79
2022/10/11 11:37:21;;;;;;;0.68;0.45;;;25.70;66.00;;;;;;4993341;28;20114;-77
2022/10/11 11:40:22;;;;;;;1.67;1.02;;;25.70;68.40;;;;;;4977151;28;20030;-78
2022/10/11 11:43:04;;;;;;;0.40;0.30;;;25.90;67.60;;;;;;4960553;28;20038;-79
2022/10/11 11:46:21;;;;;;;5.88;1.75;;;25.90;71.80;;;;;;4976500;28;20026;-78
2022/10/11 11:49:05;;;;;;;2.03;1.33;;;25.90;68.50;;;;;;4973669;28;20399;-78
2022/10/11 11:51:46;;;;;;;0.50;0.43;;;25.50;67.90;;;;;;4960753;28;20383;-78
2022/10/11 11:55:00;;;;;;;0.57;0.50;;;25.10;69.30;;;;;;4960016;28;20015;-78
2022/10/11 11:58:12;;;;;;;3.92;1.00;;;24.70;71.30;;;;;;4902031;28;20045;-79
2022/10/11 12:01:14;;;;;;;0.25;0.20;;;24.50;72.20;;;;;;4960496;28;20419;-79
2022/10/11 12:04:03;;;;;;;1.75;1.20;;;24.40;73.10;;;;;;5016225;28;20345;-78
2022/10/11 12:06:35;;;;;;;1.05;0.60;;;24.50;73.40;;;;;;5000002;28;20025;-79
2022/10/11 12:09:16;;;;;;;1.25;0.93;;;24.30;70.30;;;;;;5017414;28;20018;-79
2022/10/11 12:11:55;;;;;;;0.70;0.40;;;24.20;69.10;;;;;;5017296;28;20025;-79
2022/10/11 12:18:20;;;;;;;0.40;0.40;;;24.00;70.10;;;;;;5017538;28;20358;-78
2022/10/11 12:21:42;;;;;;;5.45;1.23;;;23.80;72.90;;;;;;4999779;28;20029;-79
2022/10/11 12:28:08;;;;;;;3.20;0.63;;;23.80;71.40;;;;;;5017236;28;20045;-81
2022/10/11 12:31:10;;;;;;;1.35;0.93;;;23.60;70.20;;;;;;5016991;28;20022;-78
2022/10/11 12:34:22;;;;;;;0.40;0.30;;;23.30;72.80;;;;;;5016974;28;20022;-79
2022/10/11 12:36:49;;;;;;;2.55;1.02;;;23.10;71.60;;;;;;4999198;28;20022;-79
2022/10/11 12:39:27;;;;;;;0.10;0.10;;;22.80;70.60;;;;;;5017025;28;20025;-79
2022/10/11 12:42:26;;;;;;;0.80;0.65;;;22.60;72.30;;;;;;5016925;28;20038;-80
2022/10/11 12:45:27;;;;;;;0.63;0.50;;;22.50;73.70;;;;;;5016773;28;20461;-79
2022/10/11 12:48:02;;;;;;;0.38;0.25;;;22.20;70.80;;;;;;5016832;28;20014;-79
2022/10/11 12:51:18;;;;;;;1.55;0.80;;;22.10;73.70;;;;;;4999348;28;20022;-79
2022/10/11 12:54:25;;;;;;;1.03;0.70;;;22.00;69.90;;;;;;4996365;28;20053;-78
2022/10/11 12:57:39;;;;;;;0.70;0.47;;;22.00;73.70;;;;;;5015908;28;20045;-77
2022/10/11 13:00:30;;;;;;;1.20;0.35;;;22.00;71.60;;;;;;4995212;28;20046;-79
2022/10/11 13:03:53;;;;;;;0.52;0.35;;;22.00;71.80;;;;;;4995166;28;20026;-79
2022/10/11 13:09:55;;;;;;;0.55;0.45;;;22.00;75.30;;;;;;4995240;28;20045;-80
2022/10/11 13:12:38;;;;;;;0.38;0.30;;;22.10;75.00;;;;;;4975785;28;20030;-79
2022/10/11 13:15:17;;;;;;;3.70;1.58;;;22.10;71.80;;;;;;4971700;28;20048;-78
2022/10/11 13:17:43;;;;;;;0.52;0.50;;;22.10;78.30;;;;;;4995096;28;20375;-79
2022/10/11 13:20:24;;;;;;;0.70;0.50;;;22.10;71.30;;;;;;4994896;28;20121;-79
2022/10/11 13:22:59;;;;;;;0.77;0.57;;;22.10;75.30;;;;;;4978607;28;20113;-79
2022/10/11 13:25:36;;;;;;;0.30;0.25;;;22.10;72.00;;;;;;4978571;28;20051;-81
2022/10/11 13:28:07;;;;;;;0.17;0.17;;;22.30;71.70;;;;;;4962781;28;20067;-79
2022/10/11 13:30:45;;;;;;;0.55;0.35;;;22.30;74.50;;;;;;4978551;28;20057;-79
2022/10/11 13:33:38;;;;;;;0.28;0.25;;;22.20;75.90;;;;;;4994888;28;20030;-79
2022/10/11 13:39:38;;;;;;;1.27;0.80;;;21.90;73.70;;;;;;5016810;28;20109;-79
2022/10/11 13:42:15;;;;;;;0.60;0.43;;;21.80;73.20;;;;;;5016240;28;20302;-79
2022/10/11 13:48:11;;;;;;;1.58;0.47;;;21.70;74.90;;;;;;5016628;28;20105;-79
2022/10/11 13:51:44;;;;;;;0.47;0.30;;;21.60;74.10;;;;;;5030714;28;20390;-79
2022/10/11 13:57:45;;;;;;;;;;;21.40;75.50;;;;;;5011162;28;20099;-80
2022/10/11 14:04:16;;;;;;;0.82;0.40;;;21.30;75.60;;;;;;5006737;28;20048;-80
2022/10/11 14:06:52;;;;;;;0.10;0.10;;;21.30;76.20;;;;;;5016130;28;20025;-79
2022/10/11 14:09:52;;;;;;;5.07;0.82;;;21.20;74.40;;;;;;5018764;28;20026;-80
2022/10/11 14:12:56;;;;;;;0.90;0.52;;;21.20;78.20;;;;;;5018346;28;20022;-80
2022/10/11 14:15:50;;;;;;;0.77;0.50;;;21.10;78.80;;;;;;5034885;28;20291;-79
2022/10/11 14:18:58;;;;;;;1.00;0.73;;;21.10;78.10;;;;;;4996120;28;20077;-80
2022/10/11 14:21:51;;;;;;;0.20;0.10;;;21.00;79.10;;;;;;5030512;28;20038;-79
2022/10/11 14:28:16;;;;;;;0.47;0.28;;;20.90;81.10;;;;;;5019495;28;20025;-80
2022/10/11 14:30:51;;;;;;;0.22;0.22;;;20.80;77.70;;;;;;5019131;28;20030;-79
2022/10/11 14:33:26;;;;;;;0.63;0.52;;;20.80;79.60;;;;;;5018081;28;20026;-79
2022/10/11 14:39:30;;;;;;;0.40;0.30;;;20.60;78.10;;;;;;5019351;28;20048;-79
2022/10/11 14:42:05;;;;;;;1.33;0.73;;;20.50;80.40;;;;;;5034427;28;22012;-78
2022/10/11 14:44:40;;;;;;;0.50;0.43;;;20.40;78.50;;;;;;5034544;28;20022;-78
2022/10/11 14:47:06;;;;;;;0.70;0.50;;;20.40;78.30;;;;;;5034410;28;20032;-79
2022/10/11 14:49:47;;;;;;;1.60;1.25;;;20.40;78.90;;;;;;5034537;28;20037;-79
2022/10/11 14:52:22;;;;;;;0.73;0.52;;;20.30;79.60;;;;;;5034277;28;20026;-79
2022/10/11 14:54:57;;;;;;;0.30;0.25;;;20.20;80.30;;;;;;5034185;28;20045;-79
2022/10/11 14:57:25;;;;;;;0.40;0.30;;;20.10;81.10;;;;;;5017955;28;20033;-79
2022/10/11 15:00:33;;;;;;;0.93;0.73;;;20.10;79.30;;;;;;5020476;28;20038;-79
2022/10/11 15:03:08;;;;;;;0.70;0.40;;;20.00;80.40;;;;;;5038350;28;20025;-79
2022/10/11 15:05:43;;;;;;;1.42;0.75;;;20.00;80.70;;;;;;5038401;28;20022;-78
2022/10/11 15:08:11;;;;;;;1.80;1.03;;;20.00;84.70;;;;;;5021012;28;20071;-79
2022/10/11 15:10:51;;;;;;;6.50;1.88;;;19.90;84.30;;;;;;5053930;28;20048;-78
2022/10/11 15:13:29;;;;;;;0.93;0.52;;;19.90;85.00;;;;;;5020929;28;20021;-78
2022/10/11 15:19:28;;;;;;;0.40;0.20;;;19.70;87.10;;;;;;5029767;28;20036;-79
2022/10/11 15:22:06;;;;;;;0.30;0.20;;;19.50;88.60;;;;;;5020209;28;20029;-78
2022/10/11 15:24:40;;;;;;;0.20;0.15;;;19.40;88.90;;;;;;5037944;28;20021;-79
2022/10/11 15:27:06;;;;;;;0.17;0.10;;;19.30;88.70;;;;;;5038062;28;20044;-79
2022/10/11 15:29:50;;;;;;;0.93;0.77;;;19.20;90.20;;;;;;5004300;28;20473;-79
2022/10/11 15:32:25;;;;;;;0.55;0.30;;;19.00;90.40;;;;;;5020575;28;20105;-79
2022/10/11 15:35:00;;;;;;;3.95;0.73;;;18.90;90.50;;;;;;5037873;28;20024;-79
2022/10/11 15:37:25;;;;;;;0.28;0.20;;;18.80;91.00;;;;;;5036782;28;20032;-79
2022/10/11 15:40:14;;;;;;;1.00;0.40;;;18.70;90.70;;;;;;5020396;28;20026;-80
2022/10/11 15:42:49;;;;;;;0.20;0.20;;;18.60;91.40;;;;;;5037677;28;20031;-80
2022/10/11 15:48:37;;;;;;;0.98;0.68;;;18.40;91.30;;;;;;5037892;28;20420;-79
2022/10/11 15:51:21;;;;;;;0.35;0.35;;;18.30;90.90;;;;;;5037499;28;20026;-80
2022/10/11 15:53:56;;;;;;;0.08;0.08;;;18.20;91.10;;;;;;5037594;28;20134;-79
2022/10/11 16:00:34;;;;;;;2.35;1.02;;;18.00;90.80;;;;;;5036728;28;20060;-79
2022/10/11 16:04:00;;;;;;;0.35;0.22;;;17.80;90.10;;;;;;5036157;28;20037;-80
2022/10/11 16:07:26;;;;;;;0.30;0.30;;;17.70;90.50;;;;;;5036302;28;20037;-79
2022/10/11 16:10:51;;;;;;;0.20;0.20;;;17.60;90.70;;;;;;5037195;28;20025;-80
2022/10/11 16:14:18;;;;;;;1.38;1.10;;;17.60;90.60;;;;;;5036059;28;20038;-79
2022/10/11 16:16:44;;;;;;;0.57;0.38;;;17.50;89.60;;;;;;5037256;28;20029;-80
2022/10/11 16:19:19;;;;;;;1.23;0.60;;;17.40;89.50;;;;;;5027956;28;20029;-80
2022/10/11 16:21:54;;;;;;;0.00;0.00;;;17.30;90.00;;;;;;5019447;28;20025;-82